createdAt,value
2022-12-15T00:04:21.944Z,-9.7
2022-12-15T00:09:28.036Z,-9.6
2022-12-15T00:14:34.142Z,-9.6
2022-12-15T00:19:40.265Z,-9.7
2022-12-15T00:24:46.348Z,-9.6
2022-12-15T00:29:51.470Z,-9.6
2022-12-15T00:34:57.580Z,-9.5
2022-12-15T00:40:03.689Z,-9.6
2022-12-15T00:45:09.782Z,-9.8
2022-12-15T00:50:15.900Z,-9.9
2022-12-15T00:55:21.984Z,-9.9
2022-12-15T01:00:28.106Z,-10
2022-12-15T01:05:33.222Z,-10
2022-12-15T01:10:39.411Z,-9.9
2022-12-15T01:15:45.440Z,-9.8
2022-12-15T01:20:51.597Z,-9.8
2022-12-15T01:25:57.724Z,-9.8
2022-12-15T01:31:03.751Z,-9.8
2022-12-15T01:36:09.924Z,-9.8
2022-12-15T01:41:15.974Z,-9.9
2022-12-15T01:46:22.061Z,-10
2022-12-15T01:51:28.179Z,-10.1
2022-12-15T01:56:34.276Z,-10.1
2022-12-15T02:01:40.388Z,-10
2022-12-15T02:06:46.477Z,-10
2022-12-15T02:11:51.683Z,-10
2022-12-15T02:16:57.715Z,-10
2022-12-15T02:22:03.816Z,-10.1
2022-12-15T02:27:09.920Z,-10.1
2022-12-15T02:32:16.016Z,-9.9
2022-12-15T02:37:22.137Z,-9.7
2022-12-15T02:42:28.225Z,-9.7
2022-12-15T02:47:34.387Z,-9.8
2022-12-15T02:52:40.438Z,-9.9
2022-12-15T02:57:46.600Z,-9.8
2022-12-15T03:02:52.645Z,-9.6
2022-12-15T03:07:58.760Z,-9.5
2022-12-15T03:13:04.858Z,-9.6
2022-12-15T03:18:10.006Z,-9.8
2022-12-15T03:23:16.076Z,-9.9
2022-12-15T03:28:22.173Z,-10
2022-12-15T03:33:28.275Z,-10.1
2022-12-15T03:38:34.394Z,-10.1
2022-12-15T03:43:40.518Z,-10.1
2022-12-15T03:48:46.591Z,-10.1
2022-12-15T03:53:52.713Z,-10.2
2022-12-15T03:58:58.804Z,-10.2
2022-12-15T04:04:04.913Z,-10.2
2022-12-15T04:09:11.027Z,-10.1
2022-12-15T04:14:17.131Z,-10.1
2022-12-15T04:19:23.219Z,-10.1
2022-12-15T04:24:28.359Z,-10.1
2022-12-15T04:29:34.461Z,-10
2022-12-15T04:34:40.558Z,-10.1
2022-12-15T04:39:46.680Z,-9.7
2022-12-15T04:44:52.779Z,-9.7
2022-12-15T04:49:58.871Z,-9.9
2022-12-15T04:55:04.992Z,-9.7
2022-12-15T05:00:11.085Z,-9.7
2022-12-15T05:05:17.195Z,-9.6
2022-12-15T05:10:23.299Z,-9.6
2022-12-15T05:15:29.430Z,-9.7
2022-12-15T05:20:35.544Z,-9.7
2022-12-15T05:25:41.608Z,-9.5
2022-12-15T05:30:46.720Z,-9.3
2022-12-15T05:35:52.827Z,-9.5
2022-12-15T05:40:58.930Z,-9.6
2022-12-15T05:46:05.076Z,-9.7
2022-12-15T05:51:11.148Z,-9.6
2022-12-15T05:56:17.362Z,-9.6
2022-12-15T06:01:23.422Z,-9.6
2022-12-15T06:06:29.450Z,-9.7
2022-12-15T06:11:35.660Z,-9.7
2022-12-15T06:16:41.652Z,-9.8
2022-12-15T06:21:47.797Z,-9.8
2022-12-15T06:26:53.877Z,-9.9
2022-12-15T06:32:00.110Z,-9.9
2022-12-15T06:37:05.099Z,-9.8
2022-12-15T06:42:11.198Z,-9.6
2022-12-15T06:47:17.338Z,-9.7
2022-12-15T06:52:23.409Z,-9.7
2022-12-15T06:57:29.647Z,-9.6
2022-12-15T07:02:35.625Z,-9.6
2022-12-15T07:07:41.782Z,-9.8
2022-12-15T07:12:47.841Z,-9.9
2022-12-15T07:17:53.930Z,-9.7
2022-12-15T07:23:00.082Z,-9.2
2022-12-15T07:28:06.140Z,-9.3
2022-12-15T07:33:12.247Z,-9.2
2022-12-15T07:38:18.361Z,-9
2022-12-15T07:43:23.624Z,-8.6
2022-12-15T07:48:29.575Z,-8.1
2022-12-15T07:53:35.689Z,-8
2022-12-15T07:58:41.884Z,-8.1
2022-12-15T08:03:48.029Z,-8.1
2022-12-15T08:08:54.171Z,-7.8
2022-12-15T08:14:00.097Z,-7.7
2022-12-15T08:19:06.278Z,-7.8
2022-12-15T08:24:12.441Z,-7.8
2022-12-15T08:29:18.413Z,-7.7
2022-12-15T08:34:24.625Z,-7.7
2022-12-15T08:39:30.664Z,-7.4
2022-12-15T08:44:36.812Z,-7
2022-12-15T08:49:41.903Z,-6.7
2022-12-15T08:54:47.941Z,-6.5
2022-12-15T08:59:54.053Z,-6.4
2022-12-15T09:05:00.230Z,-6.2
2022-12-15T09:10:06.239Z,-5.7
2022-12-15T09:15:12.383Z,-5.1
2022-12-15T09:20:18.459Z,-4.8
2022-12-15T09:25:24.544Z,-4.7
2022-12-15T09:30:30.703Z,-4.5
2022-12-15T09:35:36.783Z,-4.4
2022-12-15T09:40:42.891Z,-4.3
2022-12-15T09:45:48.973Z,-4.2
2022-12-15T09:50:55.147Z,-4.2
2022-12-15T09:56:00.207Z,-4.1
2022-12-15T10:01:06.465Z,-4
2022-12-15T10:06:12.562Z,-3.8
2022-12-15T10:11:18.660Z,-3.6
2022-12-15T10:16:24.765Z,-3.4
2022-12-15T10:21:30.787Z,-3.3
2022-12-15T10:26:37.014Z,-3.2
2022-12-15T10:31:43.156Z,-3.1
2022-12-15T10:36:49.153Z,-3
2022-12-15T10:41:55.238Z,-3
2022-12-15T10:47:01.449Z,-2.9
2022-12-15T10:52:07.430Z,-2.9
2022-12-15T10:57:13.558Z,-2.8
2022-12-15T11:02:18.508Z,-2.6
2022-12-15T11:07:24.748Z,-2.5
2022-12-15T11:12:30.840Z,-2.5
2022-12-15T11:17:36.985Z,-2.3
2022-12-15T11:22:43.034Z,-2.2
2022-12-15T11:27:48.984Z,-2.1
2022-12-15T11:32:55.298Z,-1.9
2022-12-15T11:38:01.320Z,-1.7
2022-12-15T11:48:13.522Z,-1.3
2022-12-15T11:53:19.546Z,-1.4
2022-12-15T11:58:25.544Z,-1.5
2022-12-15T12:03:31.793Z,-1.4
2022-12-15T12:08:36.892Z,-1.3
2022-12-15T12:13:42.874Z,-1.3
2022-12-15T12:18:49.142Z,-1.2
2022-12-15T12:23:55.251Z,-1.2
2022-12-15T12:29:01.344Z,-1.2
2022-12-15T12:34:07.436Z,-1.2
2022-12-15T12:39:13.485Z,-1.3
2022-12-15T12:44:19.680Z,-1.3
2022-12-15T12:49:25.809Z,-1.1
2022-12-15T12:54:31.856Z,-1
2022-12-15T12:59:37.750Z,-0.9
2022-12-15T13:04:44.029Z,-1
2022-12-15T13:09:50.126Z,-1
2022-12-15T13:14:55.254Z,-0.9
2022-12-15T13:20:01.365Z,-1
2022-12-15T13:25:07.456Z,-1
2022-12-15T13:30:13.368Z,-1.1
2022-12-15T13:35:19.620Z,-1
2022-12-15T13:40:25.853Z,-1
2022-12-15T13:45:31.702Z,-0.6
2022-12-15T13:50:38.002Z,-0.1
2022-12-15T13:55:44.024Z,1.8
2022-12-15T14:00:50.144Z,1.8
2022-12-15T14:05:56.274Z,0.9
2022-12-15T14:11:02.336Z,0.2
2022-12-15T14:16:08.494Z,-0.3
2022-12-15T14:21:13.556Z,-0.8
2022-12-15T14:26:19.636Z,-1.2
2022-12-15T14:31:25.717Z,-1.4
2022-12-15T14:36:31.851Z,-1.6
2022-12-15T14:41:37.957Z,-1.9
2022-12-15T14:46:44.052Z,-2.2
2022-12-15T14:51:50.134Z,-2.4
2022-12-15T14:56:56.261Z,-2.6
2022-12-15T15:02:02.163Z,-2.8
2022-12-15T15:07:08.357Z,-3
2022-12-15T15:12:14.396Z,-3.2
2022-12-15T15:17:20.464Z,-3.4
2022-12-15T15:22:26.568Z,-3.5
2022-12-15T15:27:31.683Z,-3.6
2022-12-15T15:32:37.818Z,-3.9
2022-12-15T15:37:43.869Z,-4.1
2022-12-15T15:42:50.109Z,-4.4
2022-12-15T15:47:56.081Z,-4.5
2022-12-15T15:53:02.188Z,-4.7
2022-12-15T15:58:08.290Z,-4.8
2022-12-15T16:03:14.393Z,-5
2022-12-15T16:08:20.552Z,-5.1
2022-12-15T16:13:26.593Z,-5.2
2022-12-15T16:23:38.820Z,-5.4
2022-12-15T16:28:45.112Z,-5.4
2022-12-15T16:33:50.033Z,-5
2022-12-15T16:38:56.217Z,-4.9
2022-12-15T16:49:08.350Z,-4.8
2022-12-15T16:54:14.452Z,-4.8
2022-12-15T16:59:20.571Z,-5.1
2022-12-15T17:04:26.778Z,-5.2
2022-12-15T17:09:32.808Z,-5.2
2022-12-15T17:14:38.895Z,-5.3
2022-12-15T17:19:44.976Z,-5.4
2022-12-15T17:24:51.161Z,-5.6
2022-12-15T17:29:57.210Z,-5.9
2022-12-15T17:35:03.414Z,-5.9
2022-12-15T17:40:08.446Z,-6
2022-12-15T17:45:14.517Z,-6.1
2022-12-15T17:50:20.629Z,-6
2022-12-15T17:55:26.711Z,-6.1
2022-12-15T18:00:32.814Z,-6.3
2022-12-15T18:05:38.916Z,-6.3
2022-12-15T18:10:44.048Z,-6.5
2022-12-15T18:15:50.159Z,-6.6
2022-12-15T18:20:56.259Z,-6.8
2022-12-15T18:26:02.345Z,-7
2022-12-15T18:31:08.532Z,-7.2
2022-12-15T18:36:14.567Z,-7.4
2022-12-15T18:41:20.651Z,-7.5
2022-12-15T18:46:26.769Z,-7.6
2022-12-15T18:51:32.877Z,-7.6
2022-12-15T18:56:38.976Z,-7.6
2022-12-15T19:01:45.067Z,-7.6
2022-12-15T19:06:51.221Z,-7.6
2022-12-15T19:11:57.269Z,-7.7
2022-12-15T19:17:02.532Z,-7.8
2022-12-15T19:22:08.500Z,-7.9
2022-12-15T19:27:14.604Z,-7.9
2022-12-15T19:32:20.709Z,-7.9
2022-12-15T19:37:26.801Z,-7.9
2022-12-15T19:42:32.896Z,-7.8
2022-12-15T19:47:39.102Z,-7.7
2022-12-15T19:52:45.119Z,-7.7
2022-12-15T19:57:51.265Z,-7.7
2022-12-15T20:02:57.458Z,-7.8
2022-12-15T20:08:03.469Z,-7.9
2022-12-15T20:13:09.644Z,-8.1
2022-12-15T20:18:15.683Z,-8.2
2022-12-15T20:23:20.872Z,-8.1
2022-12-15T20:28:26.845Z,-8.1
2022-12-15T20:33:33.093Z,-8
2022-12-15T20:38:39.070Z,-8.1
2022-12-15T20:43:45.238Z,-8
2022-12-15T20:48:51.266Z,-8.2
2022-12-15T20:53:57.395Z,-8.2
2022-12-15T20:59:03.621Z,-8.3
2022-12-15T21:04:09.602Z,-8.5
2022-12-15T21:09:15.729Z,-8.6
2022-12-15T21:14:21.880Z,-8.8
2022-12-15T21:19:28.043Z,-8.9
2022-12-15T21:24:34.169Z,-9.1
2022-12-15T21:29:39.178Z,-9.1
2022-12-15T21:34:45.372Z,-9.2
2022-12-15T21:39:51.506Z,-9.2
2022-12-15T21:44:57.407Z,-9.2
2022-12-15T21:50:03.695Z,-9.3
2022-12-15T21:55:09.798Z,-9.2
2022-12-15T22:00:15.913Z,-9.2
2022-12-15T22:05:21.956Z,-9.3
2022-12-15T22:10:28.070Z,-9.4
2022-12-15T22:15:34.207Z,-9.5
2022-12-15T22:20:40.208Z,-9.6
2022-12-15T22:25:46.418Z,-9.5
2022-12-15T22:30:52.558Z,-9.6
2022-12-15T22:35:57.486Z,-9.5
2022-12-15T22:41:03.774Z,-9.5
2022-12-15T22:46:09.918Z,-9.6
2022-12-15T22:51:15.977Z,-9.7
2022-12-15T22:56:22.070Z,-9.6
2022-12-15T23:01:27.998Z,-9.7
2022-12-15T23:06:34.284Z,-9.8
2022-12-15T23:11:40.383Z,-9.8
2022-12-15T23:16:46.458Z,-9.8
2022-12-15T23:21:52.642Z,-9.9
2022-12-15T23:26:58.654Z,-9.9
2022-12-15T23:32:04.879Z,-10
2022-12-15T23:37:10.920Z,-10
2022-12-15T23:42:16.025Z,-10.1
2022-12-15T23:47:22.105Z,-10.1
2022-12-15T23:52:28.218Z,-10.1
2022-12-15T23:57:34.324Z,-9.9
